NCAR-RAP Real-Time Weather Data

Output produced by METARs form (12 May 2021  11:39 UTC)
found at http://weather.rap.ucar.edu/surface/
 
KMRY 121054Z AUTO 00000KT 10SM OVC004 11/08 A2997 RMK AO2 SLP160 T01110083
KMRY 120954Z AUTO 24005KT 10SM OVC004 11/08 A2996 RMK AO2 SLP158 T01110083
KMRY 120854Z AUTO 15003KT 8SM OVC003 12/09 A2997 RMK AO2 SLP159 T01170094 52001
KMRY 120754Z AUTO 24003KT 10SM OVC004 12/09 A2996 RMK AO2 SLP158 T01170089 402060094
KMRY 120747Z AUTO 26004KT 10SM OVC004 12/09 A2997 RMK AO2 T01170089
KMRY 120654Z AUTO 15003KT 10SM OVC005 12/09 A2996 RMK AO2 SLP158 T01220094
KMRY 120554Z AUTO 17004KT 10SM OVC005 12/09 A2996 RMK AO2 SLP158 T01220089 10183 20122 51009
KMRY 120454Z AUTO 00000KT 8SM OVC005 12/10 A2996 RMK AO2 SLP158 T01220100
KMRY 120420Z AUTO 00000KT 10SM BKN006 13/10 A2995 RMK AO2 T01280100
KMRY 120410Z AUTO 03003KT 10SM SCT006 13/09 A2995 RMK AO2 T01280094
KMRY 120354Z 00000KT 10SM CLR 13/09 A2995 RMK AO2 SLP152 T01280094
KMRY 120254Z 29004KT 10SM CLR 13/09 A2994 RMK AO2 SLP149 T01330094 53002
KMRY 120154Z 28006KT 10SM SCT006 15/10 A2993 RMK AO2 SLP148 T01500100
KMRY 120103Z 29006KT 10SM SCT006 17/10 A2993 RMK AO2 T01670100
KMRY 120054Z COR 29006KT 10SM SCT006 17/10 A2993 RMK AO2 SLP147 T01670100
KMRY 112354Z 28006KT 10SM SCT007 18/10 A2993 RMK AO2 SLP147 T01830100 10206 20150 58006
KMRY 112254Z 28009KT 10SM CLR 19/10 A2994 RMK AO2 SLP150 T01890100